createdAt,value
2023-03-27T00:01:14.800Z,98.30
2023-03-27T00:03:49.395Z,98.30
2023-03-27T00:06:18.781Z,98.30
2023-03-27T00:08:47.208Z,98.30
2023-03-27T00:11:15.591Z,98.20
2023-03-27T00:13:50.496Z,98.30
2023-03-27T00:16:21.490Z,98.30
2023-03-27T00:18:48.569Z,98.30
2023-03-27T00:21:15.452Z,98.30
2023-03-27T00:23:42.382Z,98.30
2023-03-27T00:26:09.165Z,97.90
2023-03-27T00:28:36.352Z,97.50
2023-03-27T00:31:03.568Z,97.90
2023-03-27T00:33:31.139Z,97.50
2023-03-27T00:35:58.436Z,98.10
2023-03-27T00:38:25.197Z,97.90
2023-03-27T00:40:55.062Z,98.20
2023-03-27T00:43:33.710Z,98.30
2023-03-27T00:46:25.658Z,98.30
2023-03-27T00:48:57.737Z,98.30
2023-03-27T00:51:26.690Z,98.30
2023-03-27T00:53:55.517Z,98.30
2023-03-27T00:56:23.552Z,97.80
2023-03-27T00:58:55.495Z,98.30
2023-03-27T01:01:27.107Z,98.30
2023-03-27T01:03:54.725Z,98.30
2023-03-27T01:06:23.018Z,98.30
2023-03-27T01:08:51.732Z,98.30
2023-03-27T01:11:28.389Z,97.90
2023-03-27T01:14:37.795Z,98.20
2023-03-27T01:17:28.520Z,98.30
2023-03-27T01:20:24.577Z,98.30
2023-03-27T01:23:16.110Z,98.30
2023-03-27T01:26:08.226Z,98.30
2023-03-27T01:28:58.650Z,98.30
2023-03-27T01:31:29.045Z,98.30
2023-03-27T01:34:21.750Z,98.10
2023-03-27T01:37:07.505Z,97.10
2023-03-27T01:39:49.203Z,97.70
2023-03-27T01:42:31.252Z,97.60
2023-03-27T01:45:28.939Z,98.20
2023-03-27T01:48:01.952Z,97.30
2023-03-27T01:50:43.017Z,97.10
2023-03-27T01:53:28.531Z,97.20
2023-03-27T01:56:07.020Z,96.90
2023-03-27T01:58:41.028Z,95.60
2023-03-27T02:01:10.796Z,96.00
2023-03-27T02:03:45.197Z,95.90
2023-03-27T02:06:20.363Z,96.30
2023-03-27T02:09:01.756Z,96.30
2023-03-27T02:11:34.848Z,97.90
2023-03-27T02:14:06.357Z,97.70
2023-03-27T02:16:37.266Z,97.30
2023-03-27T02:19:15.207Z,97.40
2023-03-27T02:21:41.956Z,97.90
2023-03-27T02:24:09.105Z,96.80
2023-03-27T02:26:36.430Z,97.00
2023-03-27T02:29:14.932Z,96.40
2023-03-27T02:32:09.086Z,96.10
2023-03-27T02:34:38.535Z,96.20
2023-03-27T02:37:32.194Z,95.00
2023-03-27T02:40:29.823Z,95.20
2023-03-27T02:43:28.804Z,95.40
2023-03-27T02:46:04.856Z,94.00
2023-03-27T02:48:40.246Z,93.10
2023-03-27T02:51:12.448Z,92.30
2023-03-27T02:53:45.600Z,92.70
2023-03-27T02:56:15.050Z,93.50
2023-03-27T02:58:57.289Z,92.70
2023-03-27T03:01:36.413Z,92.30
2023-03-27T03:04:35.716Z,91.90
2023-03-27T03:07:06.417Z,91.60
2023-03-27T03:09:34.136Z,91.50
2023-03-27T03:12:08.265Z,90.60
2023-03-27T03:14:44.119Z,91.10
2023-03-27T03:17:15.225Z,90.60
2023-03-27T03:19:42.175Z,89.70
2023-03-27T03:22:09.338Z,89.40
2023-03-27T03:24:37.778Z,89.60
2023-03-27T03:27:05.660Z,89.40
2023-03-27T03:29:41.366Z,89.50
2023-03-27T03:32:23.134Z,89.80
2023-03-27T03:34:52.338Z,90.30
2023-03-27T03:37:19.822Z,90.40
2023-03-27T03:39:47.032Z,90.70
2023-03-27T03:42:22.450Z,90.70
2023-03-27T03:44:51.505Z,90.40
2023-03-27T03:47:20.350Z,89.60
2023-03-27T03:49:48.362Z,88.50
2023-03-27T03:52:15.535Z,90.60
2023-03-27T03:54:46.705Z,89.80
2023-03-27T03:57:13.905Z,89.70
2023-03-27T03:59:41.019Z,90.20
2023-03-27T04:02:29.557Z,90.50
2023-03-27T04:05:10.344Z,90.60
2023-03-27T04:07:40.316Z,90.00
2023-03-27T04:10:20.739Z,90.60
2023-03-27T04:12:48.687Z,91.40
2023-03-27T04:15:34.055Z,91.50
2023-03-27T04:18:34.905Z,91.20
2023-03-27T04:21:05.921Z,91.30
2023-03-27T04:23:33.318Z,91.10
2023-03-27T04:26:03.237Z,90.20
2023-03-27T04:28:51.721Z,90.10
2023-03-27T04:31:46.409Z,90.30
2023-03-27T04:34:33.295Z,89.30
2023-03-27T04:37:16.437Z,90.00
2023-03-27T04:39:58.254Z,89.40
2023-03-27T04:42:24.942Z,89.80
2023-03-27T04:44:52.966Z,89.60
2023-03-27T04:47:23.818Z,89.80
2023-03-27T04:49:54.979Z,89.00
2023-03-27T04:52:25.615Z,89.00
2023-03-27T04:54:53.022Z,88.50
2023-03-27T04:57:22.094Z,89.00
2023-03-27T04:59:50.242Z,88.50
2023-03-27T05:02:35.406Z,88.60
2023-03-27T05:05:10.356Z,89.00
2023-03-27T05:07:37.667Z,89.30
2023-03-27T05:10:06.623Z,89.20
2023-03-27T05:12:34.133Z,89.20
2023-03-27T05:15:06.149Z,89.00
2023-03-27T05:17:44.095Z,89.50
2023-03-27T05:20:14.666Z,89.20
2023-03-27T05:22:42.531Z,88.30
2023-03-27T05:25:21.524Z,88.80
2023-03-27T05:27:49.704Z,88.70
2023-03-27T05:30:20.917Z,88.80
2023-03-27T05:32:53.347Z,89.20
2023-03-27T05:35:28.778Z,89.00
2023-03-27T05:37:57.515Z,88.80
2023-03-27T05:40:32.571Z,89.10
2023-03-27T05:42:59.319Z,89.00
2023-03-27T05:45:29.592Z,89.00
2023-03-27T05:47:58.381Z,89.00
2023-03-27T05:50:28.419Z,89.20
2023-03-27T05:52:59.378Z,89.00
2023-03-27T05:55:36.607Z,88.70
2023-03-27T05:58:04.192Z,88.40
2023-03-27T06:00:34.113Z,88.60
2023-03-27T06:03:03.816Z,87.90
2023-03-27T06:05:52.366Z,88.20
2023-03-27T06:08:19.335Z,88.80
2023-03-27T06:10:46.658Z,88.70
2023-03-27T06:13:24.158Z,87.90
2023-03-27T06:15:56.858Z,88.30
2023-03-27T06:18:56.154Z,88.30
2023-03-27T06:21:23.353Z,87.80
2023-03-27T06:23:56.767Z,87.70
2023-03-27T06:26:23.522Z,87.00
2023-03-27T06:28:50.568Z,87.30
2023-03-27T06:31:19.948Z,87.50
2023-03-27T06:34:04.224Z,87.50
2023-03-27T06:36:51.488Z,87.50
2023-03-27T06:39:18.263Z,87.20
2023-03-27T06:41:50.508Z,87.40
2023-03-27T06:44:37.609Z,86.60
2023-03-27T06:47:12.855Z,86.70
2023-03-27T06:49:58.034Z,85.70
2023-03-27T06:52:24.831Z,86.40
2023-03-27T06:54:55.301Z,86.50
2023-03-27T06:57:22.097Z,86.50
2023-03-27T06:59:56.799Z,86.10
2023-03-27T07:02:42.042Z,85.40
2023-03-27T07:05:36.692Z,85.90
2023-03-27T07:08:18.966Z,84.70
2023-03-27T07:10:59.860Z,84.10
2023-03-27T07:13:40.943Z,84.80
2023-03-27T07:16:14.635Z,84.80
2023-03-27T07:18:42.150Z,84.40
2023-03-27T07:21:09.583Z,83.30
2023-03-27T07:23:36.658Z,83.70
2023-03-27T07:26:07.595Z,84.00
2023-03-27T07:28:51.776Z,83.90
2023-03-27T07:31:33.037Z,83.10
2023-03-27T07:34:06.822Z,83.10
2023-03-27T07:37:00.266Z,83.30
2023-03-27T07:39:27.388Z,83.70
2023-03-27T07:41:54.514Z,84.00
2023-03-27T07:44:32.017Z,83.50
2023-03-27T07:47:05.763Z,82.90
2023-03-27T07:49:34.357Z,82.90
2023-03-27T07:52:09.067Z,82.70
2023-03-27T07:54:43.083Z,82.40
2023-03-27T07:57:11.142Z,83.10
2023-03-27T07:59:58.217Z,82.80
2023-03-27T08:02:44.162Z,82.30
2023-03-27T08:05:13.571Z,82.60
2023-03-27T08:07:47.987Z,82.60
2023-03-27T08:10:27.972Z,83.70
2023-03-27T08:13:01.056Z,83.70
2023-03-27T08:15:27.881Z,84.20
2023-03-27T08:17:56.666Z,84.20
2023-03-27T08:20:30.239Z,83.60
2023-03-27T08:22:57.827Z,83.30
2023-03-27T08:25:29.762Z,83.40
2023-03-27T08:27:57.941Z,83.70
2023-03-27T08:30:26.116Z,83.20
2023-03-27T08:32:53.261Z,83.30
2023-03-27T08:35:20.389Z,83.10
2023-03-27T08:37:47.281Z,83.50
2023-03-27T08:40:30.012Z,83.60
2023-03-27T08:43:35.136Z,83.70
2023-03-27T08:46:14.054Z,83.40
2023-03-27T08:48:53.534Z,82.40
2023-03-27T08:51:33.171Z,80.60
2023-03-27T08:54:25.551Z,80.60
2023-03-27T08:56:53.636Z,81.10
2023-03-27T08:59:22.840Z,81.10
2023-03-27T09:02:18.532Z,81.10
2023-03-27T09:05:04.056Z,79.70
2023-03-27T09:08:05.197Z,78.00
2023-03-27T09:10:48.985Z,78.70
2023-03-27T09:13:45.487Z,79.00
2023-03-27T09:16:30.766Z,78.40
2023-03-27T09:19:02.664Z,78.20
2023-03-27T09:21:46.377Z,79.00
2023-03-27T09:24:32.817Z,79.90
2023-03-27T09:27:37.723Z,78.70
2023-03-27T09:30:31.736Z,78.20
2023-03-27T09:33:11.829Z,78.90
2023-03-27T09:35:45.864Z,78.80
2023-03-27T09:38:37.100Z,78.40
2023-03-27T09:41:14.197Z,76.90
2023-03-27T09:44:00.984Z,76.90
2023-03-27T09:46:28.943Z,76.80
2023-03-27T09:49:05.133Z,76.90
2023-03-27T09:51:37.683Z,76.40
2023-03-27T09:54:06.656Z,76.50
2023-03-27T09:56:46.387Z,76.30
2023-03-27T09:59:24.460Z,76.10
2023-03-27T10:02:01.502Z,77.00
2023-03-27T10:04:30.148Z,77.10
2023-03-27T10:07:05.268Z,75.80
2023-03-27T10:10:17.428Z,76.00
2023-03-27T10:13:11.138Z,74.90
2023-03-27T10:15:50.766Z,75.80
2023-03-27T10:18:29.526Z,74.10
2023-03-27T10:21:12.024Z,73.50
2023-03-27T10:23:41.213Z,75.10
2023-03-27T10:26:13.947Z,75.20
2023-03-27T10:28:51.541Z,74.90
2023-03-27T10:31:29.623Z,74.90
2023-03-27T10:34:06.736Z,74.60
2023-03-27T10:36:55.214Z,74.10
2023-03-27T10:39:28.496Z,71.80
2023-03-27T10:42:19.952Z,69.30
2023-03-27T10:44:54.379Z,66.70
2023-03-27T10:47:32.862Z,66.10
2023-03-27T10:50:38.804Z,64.70
2023-03-27T10:53:24.112Z,63.80
2023-03-27T10:56:38.735Z,64.70
2023-03-27T10:59:21.548Z,65.80
2023-03-27T11:02:01.429Z,66.60
2023-03-27T11:04:44.747Z,69.00
2023-03-27T11:07:33.814Z,69.60
2023-03-27T11:10:10.116Z,70.40
2023-03-27T11:12:39.522Z,69.70
2023-03-27T11:15:20.231Z,69.60
2023-03-27T11:18:16.046Z,71.00
2023-03-27T11:20:52.587Z,71.20
2023-03-27T11:24:03.795Z,71.30
2023-03-27T11:27:03.085Z,74.30
2023-03-27T11:29:34.264Z,78.60
2023-03-27T11:32:20.709Z,82.70
2023-03-27T11:35:02.680Z,84.60
2023-03-27T11:37:46.767Z,85.40
2023-03-27T11:40:38.081Z,83.50
2023-03-27T11:43:05.667Z,83.70
2023-03-27T11:45:45.107Z,81.80
2023-03-27T11:48:30.632Z,79.60
2023-03-27T11:51:16.739Z,78.40
2023-03-27T11:53:54.419Z,77.60
2023-03-27T11:56:45.822Z,76.10
2023-03-27T11:59:50.084Z,75.50
2023-03-27T12:02:41.767Z,76.60
2023-03-27T12:05:55.202Z,76.00
2023-03-27T12:08:46.000Z,76.40
2023-03-27T12:11:13.396Z,77.60
2023-03-27T12:14:17.613Z,79.90
2023-03-27T12:16:54.399Z,79.60
2023-03-27T12:19:49.535Z,81.20
2023-03-27T12:22:49.834Z,80.50
2023-03-27T12:25:28.076Z,79.10
2023-03-27T12:28:53.034Z,78.90
2023-03-27T12:31:55.821Z,77.70
2023-03-27T12:34:53.440Z,82.20
2023-03-27T12:37:39.924Z,87.10
2023-03-27T12:40:27.174Z,90.80
2023-03-27T12:43:31.676Z,93.00
2023-03-27T12:46:24.804Z,94.40
2023-03-27T12:49:08.271Z,96.20
2023-03-27T12:51:52.552Z,95.60
2023-03-27T12:54:38.528Z,92.10
2023-03-27T12:57:25.311Z,90.90
2023-03-27T12:59:59.060Z,91.20
2023-03-27T13:02:35.224Z,90.50
2023-03-27T13:05:26.165Z,88.50
2023-03-27T13:08:23.660Z,87.20
2023-03-27T13:11:37.372Z,86.60
2023-03-27T13:14:16.489Z,84.30
2023-03-27T13:17:09.314Z,83.70
2023-03-27T13:20:07.674Z,82.80
2023-03-27T13:22:49.645Z,83.60
2023-03-27T13:25:32.723Z,81.20
2023-03-27T13:28:24.653Z,81.70
2023-03-27T13:31:00.937Z,81.80
2023-03-27T13:34:12.747Z,80.20
2023-03-27T13:36:50.047Z,79.40
2023-03-27T13:39:41.224Z,80.00
2023-03-27T13:42:30.194Z,78.20
2023-03-27T13:45:01.983Z,78.70
2023-03-27T13:47:35.363Z,79.00
2023-03-27T13:50:27.852Z,77.00
2023-03-27T13:53:13.200Z,77.30
2023-03-27T13:56:27.692Z,77.20
2023-03-27T13:59:30.132Z,77.70
2023-03-27T14:02:27.144Z,79.80
2023-03-27T14:05:40.551Z,81.90
2023-03-27T14:08:45.514Z,85.40
2023-03-27T14:11:41.267Z,88.80
2023-03-27T14:14:43.841Z,89.90
2023-03-27T14:17:28.915Z,91.30
2023-03-27T14:20:22.088Z,93.50
2023-03-27T14:23:06.088Z,92.90
2023-03-27T14:26:00.415Z,91.70
2023-03-27T14:28:34.550Z,91.30
2023-03-27T14:31:07.362Z,90.40
2023-03-27T14:33:57.604Z,90.00
2023-03-27T14:36:30.121Z,90.60
2023-03-27T14:39:40.606Z,90.10
2023-03-27T14:42:17.027Z,91.50
2023-03-27T14:44:47.816Z,92.50
2023-03-27T14:47:25.086Z,91.40
2023-03-27T14:49:53.894Z,91.30
2023-03-27T14:52:35.864Z,92.80
2023-03-27T14:55:24.139Z,94.60
2023-03-27T14:58:11.266Z,93.10
2023-03-27T15:00:42.312Z,91.80
2023-03-27T15:03:18.751Z,90.60
2023-03-27T15:06:04.684Z,87.20
2023-03-27T15:08:41.509Z,85.20
2023-03-27T15:11:19.190Z,84.90
2023-03-27T15:14:13.133Z,86.00
2023-03-27T15:16:41.257Z,84.10
2023-03-27T15:19:27.444Z,84.60
2023-03-27T15:21:59.707Z,82.00
2023-03-27T15:24:39.746Z,83.30
2023-03-27T15:27:14.007Z,82.70
2023-03-27T15:29:48.534Z,81.50
2023-03-27T15:32:19.274Z,80.60
2023-03-27T15:34:51.199Z,80.70
2023-03-27T15:37:23.938Z,80.80
2023-03-27T15:40:27.584Z,82.30
2023-03-27T15:43:02.611Z,83.40
2023-03-27T15:45:52.238Z,83.60
2023-03-27T15:48:38.014Z,83.00
2023-03-27T15:51:20.213Z,83.50
2023-03-27T15:53:55.897Z,83.50
2023-03-27T15:56:48.409Z,83.50
2023-03-27T15:59:22.011Z,84.70
2023-03-27T16:01:52.246Z,84.40
2023-03-27T16:04:31.972Z,83.90
2023-03-27T16:07:15.952Z,84.10
2023-03-27T16:09:50.408Z,84.00
2023-03-27T16:12:19.437Z,83.80
2023-03-27T16:14:49.160Z,84.20
2023-03-27T16:17:32.323Z,83.50
2023-03-27T16:20:09.715Z,82.80
2023-03-27T16:22:37.458Z,83.50
2023-03-27T16:25:14.075Z,84.00
2023-03-27T16:28:01.902Z,84.80
2023-03-27T16:30:36.003Z,84.70
2023-03-27T16:33:03.636Z,85.10
2023-03-27T16:35:32.348Z,86.00
2023-03-27T16:37:59.547Z,86.40
2023-03-27T16:40:26.689Z,87.20
2023-03-27T16:42:53.418Z,87.50
2023-03-27T16:45:20.392Z,87.00
2023-03-27T16:47:49.590Z,87.00
2023-03-27T16:50:25.400Z,86.00
2023-03-27T16:52:52.738Z,85.80
2023-03-27T16:55:22.420Z,86.40
2023-03-27T16:57:49.286Z,86.60
2023-03-27T17:00:16.987Z,87.20
2023-03-27T17:02:44.366Z,86.80
2023-03-27T17:05:11.511Z,85.70
2023-03-27T17:07:38.423Z,84.90
2023-03-27T17:10:05.905Z,84.10
2023-03-27T17:12:32.648Z,83.00
2023-03-27T17:14:59.942Z,82.60
2023-03-27T17:17:33.327Z,82.40
2023-03-27T17:20:00.609Z,82.30
2023-03-27T17:22:29.739Z,81.90
2023-03-27T17:24:57.918Z,82.40
2023-03-27T17:27:26.815Z,83.20
2023-03-27T17:30:04.158Z,84.40
2023-03-27T17:32:39.785Z,85.30
2023-03-27T17:35:13.006Z,86.00
2023-03-27T17:37:41.319Z,86.60
2023-03-27T17:40:10.798Z,87.00
2023-03-27T17:42:37.574Z,87.10
2023-03-27T17:45:05.327Z,87.00
2023-03-27T17:47:32.097Z,87.10
2023-03-27T17:49:58.819Z,87.10
2023-03-27T17:52:27.115Z,87.60
2023-03-27T17:55:05.646Z,88.00
2023-03-27T17:57:32.954Z,89.70
2023-03-27T17:59:59.876Z,91.20
2023-03-27T18:02:26.603Z,92.20
2023-03-27T18:04:56.135Z,93.00
2023-03-27T18:07:23.947Z,93.50
2023-03-27T18:09:52.192Z,94.10
2023-03-27T18:12:18.968Z,94.00
2023-03-27T18:14:46.481Z,94.30
2023-03-27T18:17:15.694Z,94.80
2023-03-27T18:19:44.754Z,94.60
2023-03-27T18:22:11.471Z,94.60
2023-03-27T18:24:38.147Z,94.60
2023-03-27T18:27:15.793Z,94.40
2023-03-27T18:29:43.078Z,94.30
2023-03-27T18:32:10.203Z,94.80
2023-03-27T18:34:42.564Z,94.70
2023-03-27T18:37:09.258Z,94.50
2023-03-27T18:39:46.631Z,94.30
2023-03-27T18:42:13.572Z,94.20
2023-03-27T18:44:43.035Z,94.50
2023-03-27T18:47:13.182Z,94.70
2023-03-27T18:49:41.163Z,94.80
2023-03-27T18:52:07.911Z,94.60
2023-03-27T18:54:37.013Z,94.60
2023-03-27T18:57:07.647Z,94.40
2023-03-27T18:59:35.053Z,94.20
2023-03-27T19:02:01.793Z,94.50
2023-03-27T19:04:28.593Z,94.60
2023-03-27T19:06:55.430Z,94.60
2023-03-27T19:09:28.230Z,94.50
2023-03-27T19:12:05.621Z,94.60
2023-03-27T19:14:51.163Z,94.30
2023-03-27T19:17:36.769Z,94.00
2023-03-27T19:20:48.292Z,93.80
2023-03-27T19:23:34.231Z,94.20
2023-03-27T19:26:11.144Z,94.70
2023-03-27T19:28:41.089Z,94.50
2023-03-27T19:31:16.986Z,94.10
2023-03-27T19:33:44.205Z,93.90
2023-03-27T19:36:11.274Z,93.90
2023-03-27T19:38:38.524Z,94.10
2023-03-27T19:41:08.435Z,94.00
2023-03-27T19:43:35.520Z,94.10
2023-03-27T19:46:14.867Z,94.40
2023-03-27T19:48:47.601Z,94.10
2023-03-27T19:51:25.589Z,94.20
2023-03-27T19:53:52.594Z,94.40
2023-03-27T19:56:22.439Z,93.30
2023-03-27T19:58:49.463Z,93.10
2023-03-27T20:01:19.691Z,93.00
2023-03-27T20:03:47.184Z,93.40
2023-03-27T20:06:20.954Z,93.30
2023-03-27T20:08:48.941Z,93.60
2023-03-27T20:11:16.596Z,93.60
2023-03-27T20:13:55.224Z,93.20
2023-03-27T20:16:26.155Z,92.60
2023-03-27T20:19:03.885Z,92.60
2023-03-27T20:21:37.634Z,92.40
2023-03-27T20:24:09.700Z,91.80
2023-03-27T20:26:40.608Z,91.70
2023-03-27T20:29:16.213Z,90.80
2023-03-27T20:31:46.264Z,90.80
2023-03-27T20:34:13.398Z,89.90
2023-03-27T20:36:40.455Z,87.80
2023-03-27T20:39:22.510Z,87.50
2023-03-27T20:41:51.258Z,87.20
2023-03-27T20:44:18.167Z,87.10
2023-03-27T20:46:51.585Z,86.70
2023-03-27T20:49:39.765Z,87.30
2023-03-27T20:52:08.767Z,87.40
2023-03-27T20:54:35.846Z,87.90
2023-03-27T20:57:03.114Z,87.60
2023-03-27T20:59:30.982Z,87.20
2023-03-27T21:01:59.348Z,87.20
2023-03-27T21:04:28.379Z,87.40
2023-03-27T21:06:56.363Z,88.30
2023-03-27T21:09:24.597Z,88.00
2023-03-27T21:11:54.870Z,88.00
2023-03-27T21:14:21.955Z,87.20
2023-03-27T21:16:48.882Z,88.20
2023-03-27T21:19:15.827Z,88.70
2023-03-27T21:21:42.835Z,89.60
2023-03-27T21:24:09.597Z,90.40
2023-03-27T21:26:36.581Z,90.80
2023-03-27T21:29:03.535Z,90.70
2023-03-27T21:31:30.758Z,90.90
2023-03-27T21:33:57.883Z,91.10
2023-03-27T21:36:26.427Z,90.70
2023-03-27T21:38:55.153Z,91.00
2023-03-27T21:41:22.116Z,91.20
2023-03-27T21:43:48.938Z,91.60
2023-03-27T21:46:15.871Z,91.70
2023-03-27T21:48:44.654Z,92.10
2023-03-27T21:51:11.475Z,92.20
2023-03-27T21:53:38.337Z,92.20
2023-03-27T21:56:05.552Z,92.40
2023-03-27T21:58:32.277Z,92.50
2023-03-27T22:01:00.876Z,92.60
2023-03-27T22:03:28.603Z,92.50
2023-03-27T22:06:08.411Z,92.30
2023-03-27T22:08:38.793Z,92.40
2023-03-27T22:11:05.972Z,92.80
2023-03-27T22:13:36.233Z,92.70
2023-03-27T22:16:12.273Z,93.00
2023-03-27T22:18:40.126Z,93.10
2023-03-27T22:21:18.131Z,93.00
2023-03-27T22:23:46.198Z,93.00
2023-03-27T22:26:15.500Z,92.90
2023-03-27T22:28:42.352Z,92.80
2023-03-27T22:31:09.485Z,92.70
2023-03-27T22:33:37.682Z,92.60
2023-03-27T22:36:06.001Z,92.80
2023-03-27T22:38:33.355Z,92.70
2023-03-27T22:41:02.599Z,93.20
2023-03-27T22:43:31.449Z,93.30
2023-03-27T22:46:07.313Z,93.60
2023-03-27T22:48:34.676Z,93.30
2023-03-27T22:51:02.300Z,93.30
2023-03-27T22:53:29.220Z,93.10
2023-03-27T22:55:56.791Z,92.90
2023-03-27T22:58:24.425Z,93.00
2023-03-27T23:00:54.832Z,92.60
2023-03-27T23:03:23.586Z,92.50
2023-03-27T23:05:54.531Z,92.40
2023-03-27T23:08:24.109Z,92.40
2023-03-27T23:11:04.962Z,92.50
2023-03-27T23:13:33.261Z,92.80
2023-03-27T23:16:00.414Z,93.00
2023-03-27T23:18:27.534Z,92.70
2023-03-27T23:21:01.897Z,92.70
2023-03-27T23:23:30.591Z,93.10
2023-03-27T23:25:58.940Z,93.20
2023-03-27T23:28:26.569Z,93.80
2023-03-27T23:31:04.312Z,93.60
2023-03-27T23:33:38.397Z,93.60
2023-03-27T23:36:11.363Z,93.60
2023-03-27T23:38:39.152Z,93.40
2023-03-27T23:41:07.128Z,93.70
2023-03-27T23:43:34.405Z,93.40
2023-03-27T23:46:01.490Z,93.40
2023-03-27T23:48:29.536Z,93.40
2023-03-27T23:50:57.495Z,93.60
2023-03-27T23:53:26.530Z,93.60
2023-03-27T23:55:56.013Z,94.30
2023-03-27T23:58:24.034Z,94.30
